Time;durP1;ratioP1;P1;durP2;ratioP2;P2;SDS_P1;SDS_P2;PMS_P1;PMS_P2;Temp;Humidity;BMP_temperature;BMP_pressure;BME280_temperature;BME280_humidity;BME280_pressure;Samples;Min_cycle;Max_cycle;Signal;HPM_P1;HPM_P2
2022/03/10 00:00:20;;;;;;;23.13;8.65;;;2.00;67.60;;;;;;6256562;28;20051;-83
2022/03/10 00:03:22;;;;;;;24.17;9.25;;;2.00;67.50;;;;;;6257007;28;20053;-83
2022/03/10 00:06:23;;;;;;;30.17;11.18;;;2.00;67.50;;;;;;6257263;28;20057;-84
2022/03/10 00:09:25;;;;;;;27.00;10.40;;;1.90;67.50;;;;;;6256359;28;20037;-82
2022/03/10 00:12:29;;;;;;;27.33;9.48;;;1.90;69.00;;;;;;6256448;28;20176;-82
2022/03/10 00:15:30;;;;;;;21.08;10.48;;;1.90;68.40;;;;;;6256518;28;20045;-82
2022/03/10 00:18:32;;;;;;;27.35;11.38;;;1.80;68.70;;;;;;6256589;28;20049;-83
2022/03/10 00:21:34;;;;;;;21.02;9.10;;;1.80;68.80;;;;;;6254956;28;20045;-83
2022/03/10 00:24:36;;;;;;;21.48;10.45;;;1.70;69.00;;;;;;6254811;28;20219;-82
2022/03/10 00:27:39;;;;;;;23.20;10.20;;;1.70;68.90;;;;;;6254629;28;20575;-82
2022/03/10 00:30:41;;;;;;;25.48;10.25;;;1.70;69.00;;;;;;6255973;28;20384;-82
2022/03/10 00:33:42;;;;;;;25.60;8.95;;;1.60;69.40;;;;;;6255130;28;20056;-82
2022/03/10 00:36:45;;;;;;;29.00;11.27;;;1.60;69.20;;;;;;6254370;28;20423;-83
2022/03/10 00:39:48;;;;;;;19.83;9.02;;;1.60;69.10;;;;;;6255072;28;20503;-82
2022/03/10 00:42:51;;;;;;;25.55;9.82;;;1.60;69.00;;;;;;6255163;28;20049;-83
2022/03/10 00:45:53;;;;;;;22.70;10.63;;;1.60;69.00;;;;;;6255249;28;20051;-83
2022/03/10 00:48:54;;;;;;;25.08;10.75;;;1.50;69.10;;;;;;6255324;28;20103;-83
2022/03/10 00:51:56;;;;;;;25.58;11.63;;;1.50;69.20;;;;;;6255070;28;20072;-83
2022/03/10 00:54:58;;;;;;;21.63;9.75;;;1.50;69.50;;;;;;6255148;28;20056;-83
2022/03/10 00:58:01;;;;;;;25.38;9.98;;;1.40;69.50;;;;;;6254440;28;20129;-83
2022/03/10 01:01:03;;;;;;;27.42;10.38;;;1.40;69.70;;;;;;6254978;28;20503;-82
2022/03/10 01:04:05;;;;;;;26.92;11.88;;;1.40;70.00;;;;;;6256850;28;20100;-83
2022/03/10 01:07:07;;;;;;;24.88;10.32;;;1.30;70.40;;;;;;6255517;28;20121;-83
2022/03/10 01:10:09;;;;;;;33.47;10.55;;;1.30;70.80;;;;;;6264027;28;20077;-83
2022/03/10 01:13:17;;;;;;;28.83;10.60;;;1.30;70.80;;;;;;6264566;28;20065;-83
2022/03/10 01:16:19;;;;;;;23.08;9.68;;;1.20;70.80;;;;;;6264130;28;20128;-81
2022/03/10 01:19:20;;;;;;;21.80;11.05;;;1.20;70.80;;;;;;6245259;28;20054;-83
2022/03/10 01:47:39;;;;;;;21.77;9.98;;;1.10;72.60;;;;;;6251521;28;20049;-83
2022/03/10 01:50:41;;;;;;;19.27;8.30;;;1.00;73.00;;;;;;6253706;28;20060;-82
2022/03/10 01:53:43;;;;;;;26.10;10.35;;;1.00;73.00;;;;;;6252299;28;20045;-82
2022/03/10 01:56:45;;;;;;;23.48;10.10;;;0.90;73.10;;;;;;6252797;28;20045;-82
2022/03/10 01:59:47;;;;;;;22.30;9.13;;;0.90;73.20;;;;;;6253043;28;20041;-81
2022/03/10 02:02:50;;;;;;;28.92;12.05;;;0.80;73.30;;;;;;6253169;28;20374;-82
2022/03/10 02:05:52;;;;;;;23.63;9.90;;;0.80;73.50;;;;;;6252667;28;20129;-82
2022/03/10 02:12:13;;;;;;;20.63;7.80;;;0.80;73.60;;;;;;6252181;28;20037;-81
2022/03/10 02:18:38;;;;;;;19.02;8.55;;;0.80;74.30;;;;;;6253666;28;20654;-81
2022/03/10 02:21:40;;;;;;;26.05;9.05;;;0.80;74.10;;;;;;6256210;28;20068;-81
2022/03/10 02:24:45;;;;;;;22.05;8.98;;;0.70;74.50;;;;;;6256459;28;20045;-80
2022/03/10 02:27:50;;;;;;;22.45;8.75;;;0.70;74.90;;;;;;6254972;28;20045;-81
2022/03/10 02:30:52;;;;;;;21.05;9.43;;;0.70;75.70;;;;;;6256703;28;20049;-81
2022/03/10 02:33:56;;;;;;;19.88;9.20;;;0.70;75.80;;;;;;6255752;28;20121;-80
2022/03/10 02:36:58;;;;;;;18.17;9.23;;;0.60;75.00;;;;;;6254665;28;20045;-80
2022/03/10 02:40:01;;;;;;;22.73;9.32;;;0.60;75.00;;;;;;6259903;28;20507;-81
2022/03/10 02:43:03;;;;;;;25.08;9.20;;;0.50;74.60;;;;;;6261313;28;20076;-82
2022/03/10 02:46:05;;;;;;;23.88;9.93;;;0.50;74.70;;;;;;6259249;28;20589;-82
2022/03/10 02:49:06;;;;;;;19.70;9.38;;;0.50;74.80;;;;;;6260983;28;20175;-82
2022/03/10 02:52:09;;;;;;;31.85;9.30;;;0.50;74.90;;;;;;6259851;28;20052;-81
2022/03/10 02:55:13;;;;;;;22.60;8.40;;;0.50;74.60;;;;;;6259068;28;20570;-81
2022/03/10 02:58:15;;;;;;;18.27;8.25;;;0.50;74.50;;;;;;6263004;28;20089;-82
2022/03/10 03:01:17;;;;;;;20.95;9.10;;;0.40;74.30;;;;;;6263228;28;20045;-82
2022/03/10 03:04:19;;;;;;;21.95;9.88;;;0.40;74.80;;;;;;6266980;28;20337;-82
2022/03/10 03:07:20;;;;;;;22.15;9.25;;;0.40;74.90;;;;;;6263626;28;20048;-82
2022/03/10 03:10:24;;;;;;;22.52;9.15;;;0.40;74.70;;;;;;6219450;28;20065;-81
2022/03/10 03:13:26;;;;;;;22.70;8.88;;;0.30;75.20;;;;;;6245515;28;20569;-82
2022/03/10 03:16:27;;;;;;;20.00;8.88;;;0.20;75.60;;;;;;6244777;28;20103;-81
2022/03/10 03:19:29;;;;;;;21.60;9.80;;;0.20;75.30;;;;;;6242747;28;20450;-81
2022/03/10 03:22:31;;;;;;;29.98;11.82;;;0.20;75.40;;;;;;6248383;28;20097;-83
2022/03/10 03:25:34;;;;;;;25.45;9.82;;;0.20;75.70;;;;;;6248879;28;20052;-82
2022/03/10 03:28:36;;;;;;;21.33;10.32;;;0.10;76.00;;;;;;6250451;28;20046;-82
2022/03/10 03:31:38;;;;;;;24.95;9.95;;;0.10;77.30;;;;;;6250109;28;20076;-82
2022/03/10 03:34:40;;;;;;;26.73;11.68;;;0.00;77.90;;;;;;6248978;28;20042;-81
2022/03/10 03:37:42;;;;;;;29.35;11.32;;;0.00;78.00;;;;;;6247746;28;20042;-81
2022/03/10 03:40:45;;;;;;;29.55;8.93;;;0.00;78.30;;;;;;6247466;28;20109;-82
2022/03/10 03:43:47;;;;;;;32.00;9.15;;;0.00;78.10;;;;;;6240860;28;20046;-82
2022/03/10 03:46:48;;;;;;;18.98;8.77;;;0.00;78.10;;;;;;6232697;28;20049;-81
2022/03/10 03:49:50;;;;;;;20.73;9.57;;;0.00;78.00;;;;;;6232277;28;20046;-81
2022/03/10 03:52:52;;;;;;;20.50;10.32;;;-0.10;77.60;;;;;;6232517;28;20578;-81
2022/03/10 03:55:55;;;;;;;17.52;8.30;;;-0.10;77.90;;;;;;6233960;28;20045;-83
2022/03/10 03:58:57;;;;;;;20.95;8.40;;;-0.10;77.90;;;;;;6233826;28;20049;-82
2022/03/10 04:01:59;;;;;;;20.52;10.05;;;-0.10;77.80;;;;;;6232159;28;20092;-82
2022/03/10 04:05:00;;;;;;;19.83;7.95;;;-0.10;78.20;;;;;;6233098;28;20127;-81
2022/03/10 04:08:02;;;;;;;23.88;9.20;;;-0.10;78.40;;;;;;6232643;28;20038;-82
2022/03/10 04:11:05;;;;;;;21.92;9.35;;;-0.10;79.00;;;;;;6233407;28;20109;-82
2022/03/10 04:14:10;;;;;;;25.40;8.93;;;-0.20;79.20;;;;;;6233508;28;20053;-81
2022/03/10 04:17:11;;;;;;;21.15;9.60;;;-0.20;79.70;;;;;;6232731;28;20541;-82
2022/03/10 04:20:13;;;;;;;22.20;9.55;;;-0.20;79.80;;;;;;6233460;28;20045;-83
2022/03/10 04:23:16;;;;;;;21.70;9.38;;;-0.20;79.60;;;;;;6233431;28;20518;-81
2022/03/10 04:26:19;;;;;;;24.55;9.27;;;-0.30;79.60;;;;;;6206081;28;20077;-82
2022/03/10 04:29:21;;;;;;;20.27;8.35;;;-0.30;79.70;;;;;;6232852;28;20045;-83
2022/03/10 04:32:23;;;;;;;22.90;9.90;;;-0.20;79.80;;;;;;6232336;28;20061;-83
2022/03/10 04:35:25;;;;;;;22.17;9.63;;;-0.30;79.80;;;;;;6232982;28;20121;-82
2022/03/10 04:38:27;;;;;;;22.45;10.13;;;-0.30;79.90;;;;;;6234422;28;20097;-83
2022/03/10 04:47:43;;;;;;;21.95;8.73;;;-0.40;78.90;;;;;;6264226;28;20049;-83
2022/03/10 04:50:45;;;;;;;20.27;8.68;;;-0.40;78.80;;;;;;6256982;28;20053;-85
2022/03/10 04:53:47;;;;;;;20.55;8.85;;;-0.40;79.20;;;;;;6257410;28;20041;-83
2022/03/10 04:56:49;;;;;;;25.23;8.73;;;-0.40;79.60;;;;;;6261412;28;20060;-83
2022/03/10 04:59:51;;;;;;;19.00;9.20;;;-0.40;79.20;;;;;;6272311;28;20105;-83
2022/03/10 05:02:54;;;;;;;25.42;10.32;;;-0.50;78.80;;;;;;6272315;28;20060;-83
2022/03/10 05:05:56;;;;;;;21.27;8.35;;;-0.50;79.60;;;;;;6271734;28;20109;-83
2022/03/10 05:08:57;;;;;;;23.85;9.75;;;-0.50;79.40;;;;;;6272211;28;20044;-82
2022/03/10 05:11:59;;;;;;;24.20;8.40;;;-0.50;79.10;;;;;;6255786;28;20120;-82
2022/03/10 05:15:01;;;;;;;17.08;8.30;;;-0.50;79.00;;;;;;6256587;28;20414;-83
2022/03/10 05:18:05;;;;;;;20.40;9.18;;;-0.60;79.10;;;;;;6255552;28;20041;-83
2022/03/10 05:21:07;;;;;;;23.35;8.55;;;-0.50;79.30;;;;;;6257794;28;20042;-84
2022/03/10 05:24:10;;;;;;;23.33;10.82;;;-0.50;79.80;;;;;;6264847;28;20052;-83
2022/03/10 05:27:12;;;;;;;24.05;10.98;;;-0.60;79.30;;;;;;6264438;28;20053;-83
2022/03/10 05:30:15;;;;;;;22.60;9.45;;;-0.60;79.40;;;;;;6264738;28;20073;-83
2022/03/10 05:33:18;;;;;;;21.90;8.07;;;-0.60;79.90;;;;;;6264235;28;20060;-84
2022/03/10 05:36:20;;;;;;;22.42;9.25;;;-0.60;79.40;;;;;;6260313;28;20053;-84
2022/03/10 05:39:22;;;;;;;33.22;10.55;;;-0.60;79.80;;;;;;6259687;28;20057;-83
2022/03/10 05:42:24;;;;;;;18.63;8.88;;;-0.60;79.40;;;;;;6268337;28;20053;-85
2022/03/10 05:45:26;;;;;;;23.40;10.50;;;-0.60;79.40;;;;;;6265133;28;20093;-83
2022/03/10 05:48:30;;;;;;;19.67;8.80;;;-0.60;79.60;;;;;;6264675;28;20573;-84
2022/03/10 05:51:32;;;;;;;18.55;10.10;;;-0.60;79.60;;;;;;6263844;28;20037;-84
2022/03/10 05:54:35;;;;;;;21.02;9.02;;;-0.70;80.60;;;;;;6262879;28;20045;-83
2022/03/10 05:57:37;;;;;;;22.23;9.93;;;-0.70;81.90;;;;;;6269314;28;20076;-83
2022/03/10 06:00:39;;;;;;;34.90;11.75;;;-0.70;81.80;;;;;;6272001;28;20059;-85
2022/03/10 06:03:42;;;;;;;26.83;11.80;;;-0.80;82.00;;;;;;6272232;28;20033;-84
2022/03/10 06:06:44;;;;;;;27.02;11.70;;;-0.80;82.50;;;;;;6273494;28;20080;-84
2022/03/10 06:09:46;;;;;;;25.02;10.70;;;-0.80;82.30;;;;;;6265281;28;20049;-84
2022/03/10 06:12:48;;;;;;;29.38;11.60;;;-0.70;82.80;;;;;;6265196;28;20068;-84
2022/03/10 06:15:50;;;;;;;22.52;10.30;;;-0.70;82.90;;;;;;6265447;28;20049;-84
2022/03/10 06:18:53;;;;;;;28.90;10.23;;;-0.60;82.80;;;;;;6263302;28;20049;-84
2022/03/10 06:21:55;;;;;;;27.10;9.13;;;-0.60;82.50;;;;;;6264442;28;20064;-82
2022/03/10 06:24:57;;;;;;;38.75;10.82;;;-0.50;82.50;;;;;;6262484;28;20099;-83
2022/03/10 06:27:59;;;;;;;29.38;10.80;;;-0.40;82.20;;;;;;6262895;28;20095;-81
2022/03/10 06:31:01;;;;;;;26.70;10.30;;;-0.30;81.70;;;;;;6261554;28;20108;-83
2022/03/10 06:34:04;;;;;;;25.48;10.70;;;-0.20;81.50;;;;;;6260135;28;20053;-85
2022/03/10 06:37:05;;;;;;;25.42;10.05;;;-0.10;81.40;;;;;;6253398;28;20101;-83
2022/03/10 06:40:09;;;;;;;23.50;11.93;;;0.00;81.20;;;;;;6267884;28;20041;-85
2022/03/10 06:43:11;;;;;;;25.52;9.20;;;0.10;80.80;;;;;;6261721;28;20632;-83
2022/03/10 06:46:13;;;;;;;25.80;10.77;;;0.30;80.90;;;;;;6260616;28;20084;-83
2022/03/10 06:49:16;;;;;;;29.80;11.15;;;0.40;80.70;;;;;;6260196;28;20460;-83
2022/03/10 06:52:19;;;;;;;28.27;12.20;;;0.60;80.50;;;;;;6260508;28;20050;-83
2022/03/10 06:55:21;;;;;;;27.55;10.73;;;0.80;80.30;;;;;;6258326;28;20060;-84
2022/03/10 06:58:23;;;;;;;25.80;10.13;;;1.00;80.10;;;;;;6256960;28;20053;-83
2022/03/10 07:01:25;;;;;;;28.00;12.20;;;1.20;79.80;;;;;;6255977;28;20049;-84
2022/03/10 07:04:28;;;;;;;28.98;11.00;;;1.50;79.50;;;;;;6255247;28;20046;-83
2022/03/10 07:07:30;;;;;;;27.27;13.02;;;1.70;79.10;;;;;;6256678;28;20045;-84
2022/03/10 07:10:31;;;;;;;27.77;11.07;;;2.00;78.70;;;;;;6256332;28;20053;-84
2022/03/10 07:13:36;;;;;;;25.75;9.95;;;2.30;78.30;;;;;;6256660;28;20053;-83
2022/03/10 07:16:37;;;;;;;24.42;10.77;;;2.50;77.80;;;;;;6257246;28;20041;-82
2022/03/10 07:19:41;;;;;;;20.65;10.00;;;2.80;77.40;;;;;;6255648;28;20125;-83
2022/03/10 07:22:43;;;;;;;30.92;13.50;;;3.20;76.90;;;;;;6256301;28;20049;-83
2022/03/10 07:25:45;;;;;;;30.40;14.43;;;3.60;76.10;;;;;;6259874;28;20046;-85
2022/03/10 07:28:47;;;;;;;29.73;12.38;;;4.10;75.30;;;;;;6259425;28;20045;-84
2022/03/10 07:31:49;;;;;;;31.60;13.98;;;4.50;74.30;;;;;;6256500;28;20045;-83
2022/03/10 07:34:52;;;;;;;31.27;14.25;;;5.00;73.40;;;;;;6247829;28;20057;-84
2022/03/10 07:37:56;;;;;;;33.63;13.57;;;5.40;70.80;;;;;;6239004;28;20046;-82
2022/03/10 07:40:58;;;;;;;31.27;13.07;;;5.70;68.80;;;;;;6234579;28;20419;-82
2022/03/10 07:43:59;;;;;;;30.23;13.45;;;6.00;66.70;;;;;;6236624;28;20042;-81
2022/03/10 07:47:01;;;;;;;30.83;14.20;;;6.40;64.20;;;;;;6235749;28;20141;-82
2022/03/10 07:50:05;;;;;;;30.23;13.38;;;6.80;62.20;;;;;;6238381;28;20048;-81
2022/03/10 07:53:07;;;;;;;37.40;15.35;;;7.20;60.50;;;;;;6237449;28;20111;-81
2022/03/10 07:56:09;;;;;;;33.03;12.88;;;7.90;60.20;;;;;;6233836;28;20124;-82
2022/03/10 07:59:10;;;;;;;31.30;12.93;;;9.20;57.70;;;;;;6232565;28;20056;-83
2022/03/10 08:02:12;;;;;;;33.10;12.23;;;10.80;53.10;;;;;;6233891;28;20152;-82
2022/03/10 08:05:15;;;;;;;30.70;12.38;;;12.40;47.80;;;;;;6232317;28;20052;-83
2022/03/10 08:08:17;;;;;;;31.67;12.48;;;13.80;44.10;;;;;;6231556;28;20041;-82
2022/03/10 08:11:19;;;;;;;50.03;14.77;;;15.10;41.10;;;;;;6234137;28;20042;-81
2022/03/10 08:14:21;;;;;;;25.63;11.50;;;16.30;38.50;;;;;;6233642;28;20054;-80
2022/03/10 08:17:23;;;;;;;29.48;13.40;;;17.30;36.70;;;;;;6231797;28;20061;-80
2022/03/10 08:20:26;;;;;;;23.65;12.70;;;17.90;34.90;;;;;;6233587;28;20071;-83
2022/03/10 08:23:28;;;;;;;26.58;13.43;;;18.50;33.50;;;;;;6230106;28;20176;-81
2022/03/10 08:26:30;;;;;;;27.50;12.10;;;18.60;32.90;;;;;;6232061;28;20046;-82
2022/03/10 08:29:32;;;;;;;22.52;12.18;;;18.40;32.10;;;;;;6234795;28;20040;-80
2022/03/10 08:32:34;;;;;;;26.25;12.85;;;17.70;32.30;;;;;;6244020;28;20048;-82
2022/03/10 08:35:38;;;;;;;27.25;12.27;;;17.10;34.00;;;;;;6249481;28;20043;-80
2022/03/10 08:38:40;;;;;;;19.45;10.73;;;17.00;34.00;;;;;;6251792;28;20144;-83
2022/03/10 08:41:41;;;;;;;29.10;11.57;;;17.50;32.80;;;;;;6252784;28;20099;-81
2022/03/10 08:44:43;;;;;;;22.73;10.93;;;18.60;31.50;;;;;;6250980;28;20132;-79
2022/03/10 08:47:46;;;;;;;20.63;11.60;;;19.90;29.90;;;;;;6251920;28;20418;-79
2022/03/10 08:50:49;;;;;;;21.73;11.73;;;20.80;28.60;;;;;;6251561;28;20049;-81
2022/03/10 08:53:51;;;;;;;28.42;13.50;;;21.50;28.10;;;;;;6250449;28;20124;-80
2022/03/10 08:56:53;;;;;;;22.00;11.27;;;22.20;27.50;;;;;;6234944;28;20041;-80
2022/03/10 08:59:55;;;;;;;18.35;11.27;;;22.80;27.00;;;;;;6227156;28;20056;-81
2022/03/10 09:02:57;;;;;;;24.80;11.63;;;23.20;26.50;;;;;;6226023;28;20060;-80
2022/03/10 09:06:00;;;;;;;23.27;11.70;;;23.70;25.90;;;;;;6224823;28;20069;-81
2022/03/10 09:09:03;;;;;;;24.58;11.85;;;23.90;25.60;;;;;;6226036;28;20129;-79
2022/03/10 09:12:05;;;;;;;21.17;10.68;;;24.10;25.60;;;;;;6226098;28;20109;-80
2022/03/10 09:15:08;;;;;;;22.15;10.38;;;24.40;25.20;;;;;;6225822;28;20056;-83
2022/03/10 09:18:10;;;;;;;20.75;10.77;;;24.50;25.00;;;;;;6227128;28;20057;-82
2022/03/10 09:21:13;;;;;;;23.50;12.27;;;24.30;24.40;;;;;;6226569;28;20426;-82
2022/03/10 09:24:15;;;;;;;24.42;11.05;;;24.10;25.00;;;;;;6227031;28;20056;-82
2022/03/10 09:27:17;;;;;;;18.25;10.23;;;24.30;24.80;;;;;;6240529;28;20064;-80
2022/03/10 09:30:19;;;;;;;24.05;10.93;;;24.50;24.80;;;;;;6258332;28;20041;-81
2022/03/10 09:33:21;;;;;;;24.55;13.10;;;24.30;24.70;;;;;;6259242;28;20109;-82
2022/03/10 09:36:26;;;;;;;24.83;11.27;;;23.90;25.10;;;;;;6262183;28;20101;-82
2022/03/10 09:39:28;;;;;;;19.42;10.43;;;23.40;25.00;;;;;;6263417;28;20053;-82
2022/03/10 09:42:32;;;;;;;20.92;11.57;;;22.40;25.70;;;;;;6262807;28;20053;-82
2022/03/10 09:45:36;;;;;;;18.77;10.95;;;21.50;26.70;;;;;;6261821;28;20655;-84
2022/03/10 09:48:40;;;;;;;21.08;10.25;;;20.70;27.40;;;;;;6261138;28;20068;-81
2022/03/10 09:51:43;;;;;;;19.98;10.95;;;20.10;27.90;;;;;;6265147;28;20067;-81
2022/03/10 09:54:45;;;;;;;20.77;11.15;;;19.70;28.50;;;;;;6268189;28;20080;-84
2022/03/10 09:57:48;;;;;;;24.00;10.27;;;19.40;29.00;;;;;;6258438;28;20117;-82
2022/03/10 10:00:50;;;;;;;19.38;10.15;;;19.30;29.20;;;;;;6265779;28;20041;-82
2022/03/10 10:03:52;;;;;;;19.95;10.95;;;19.20;29.20;;;;;;6265125;28;20076;-82
2022/03/10 10:07:03;;;;;;;39.35;11.52;;;19.20;29.40;;;;;;6265630;28;20049;-82
2022/03/10 10:10:06;;;;;;;19.38;10.75;;;19.20;29.70;;;;;;6264185;28;20093;-82
2022/03/10 10:13:08;;;;;;;21.58;10.95;;;19.20;29.80;;;;;;6264033;28;20111;-82
2022/03/10 10:16:12;;;;;;;21.60;10.88;;;19.20;30.00;;;;;;6263033;28;20045;-81
2022/03/10 10:19:18;;;;;;;18.92;10.02;;;19.30;29.80;;;;;;6263123;28;20128;-82
2022/03/10 10:22:23;;;;;;;16.27;8.57;;;19.60;29.90;;;;;;6263013;28;20140;-81
2022/03/10 10:25:25;;;;;;;24.50;9.98;;;19.80;29.50;;;;;;6260148;28;20058;-82
2022/03/10 10:28:31;;;;;;;17.05;9.00;;;20.10;29.30;;;;;;6259038;28;20514;-82
2022/03/10 10:31:37;;;;;;;17.83;9.05;;;20.30;29.20;;;;;;6264080;28;20041;-82
2022/03/10 10:34:39;;;;;;;23.05;8.25;;;20.40;29.10;;;;;;6263944;28;20050;-82
2022/03/10 10:37:46;;;;;;;18.58;7.97;;;20.70;29.30;;;;;;6264323;28;20105;-82
2022/03/10 10:40:51;;;;;;;24.77;9.30;;;21.00;29.10;;;;;;6262109;28;20042;-81
2022/03/10 10:43:55;;;;;;;15.98;7.75;;;21.30;28.90;;;;;;6260799;28;20069;-82
2022/03/10 10:46:58;;;;;;;11.23;7.80;;;21.50;28.80;;;;;;6263791;28;20060;-82
2022/03/10 10:50:01;;;;;;;13.32;6.95;;;21.70;28.50;;;;;;6263283;28;20038;-82
2022/03/10 10:53:06;;;;;;;11.57;6.72;;;21.90;28.40;;;;;;6259952;28;20051;-83
2022/03/10 10:56:08;;;;;;;8.38;4.85;;;22.10;28.10;;;;;;6258534;28;20136;-85
2022/03/10 10:59:25;;;;;;;4.25;2.95;;;22.30;27.00;;;;;;6271882;28;20109;-85
2022/03/10 11:02:27;;;;;;;4.18;2.20;;;22.10;25.50;;;;;;6272223;28;20045;-86
2022/03/10 11:05:29;;;;;;;12.38;2.90;;;21.70;25.70;;;;;;6273254;28;20041;-85
2022/03/10 11:08:32;;;;;;;3.42;2.28;;;21.60;25.50;;;;;;6274176;28;20117;-83
2022/03/10 11:11:36;;;;;;;4.38;2.85;;;21.10;25.50;;;;;;6275176;28;20045;-84
2022/03/10 11:14:38;;;;;;;5.03;2.80;;;20.50;25.70;;;;;;6269054;28;20084;-85
2022/03/10 11:17:41;;;;;;;6.35;2.55;;;20.30;26.30;;;;;;6262407;28;20128;-85
2022/03/10 11:20:46;;;;;;;3.65;2.30;;;20.50;25.80;;;;;;6260351;28;20038;-83
2022/03/10 11:24:04;;;;;;;4.68;2.53;;;20.30;25.90;;;;;;6259035;28;20081;-83
2022/03/10 11:27:12;;;;;;;7.23;2.10;;;20.00;26.00;;;;;;6242413;28;20157;-82
2022/03/10 11:30:13;;;;;;;;;;;20.10;26.50;;;;;;6234343;28;20050;-83
2022/03/10 11:33:17;;;;;;;3.65;2.10;;;20.30;26.30;;;;;;6233440;28;19928;-84
2022/03/10 11:36:21;;;;;;;3.97;1.92;;;20.30;25.80;;;;;;6232710;28;20527;-84
2022/03/10 11:39:25;;;;;;;6.28;2.65;;;20.10;26.20;;;;;;6233651;28;20060;-84
2022/03/10 11:42:29;;;;;;;4.55;2.33;;;20.30;26.00;;;;;;6233220;28;20054;-84
2022/03/10 11:45:32;;;;;;;5.18;2.88;;;20.40;26.10;;;;;;6232889;28;20116;-84
2022/03/10 11:48:38;;;;;;;3.38;2.13;;;20.20;26.20;;;;;;6232802;28;20046;-84
2022/03/10 11:51:45;;;;;;;6.82;3.05;;;20.00;26.60;;;;;;6233108;28;20121;-84
2022/03/10 11:55:05;;;;;;;5.55;2.70;;;20.10;26.60;;;;;;6239035;28;20105;-84
2022/03/10 11:58:10;;;;;;;4.88;2.63;;;20.00;26.40;;;;;;6249044;28;20045;-83
2022/03/10 12:01:19;;;;;;;3.88;2.20;;;19.90;27.20;;;;;;6256553;28;20125;-84
2022/03/10 12:04:22;;;;;;;5.47;3.08;;;19.90;25.90;;;;;;6257562;28;20068;-84
2022/03/10 12:07:31;;;;;;;4.18;2.33;;;19.70;26.30;;;;;;6257112;28;20058;-84
2022/03/10 12:10:42;;;;;;;5.88;2.55;;;19.80;26.60;;;;;;6257938;28;20076;-84
2022/03/10 12:13:45;;;;;;;5.95;2.88;;;20.30;26.10;;;;;;6255537;28;20522;-84
2022/03/10 12:16:47;;;;;;;4.72;2.05;;;20.30;26.40;;;;;;6258528;28;20104;-87
2022/03/10 12:20:12;;;;;;;10.05;2.63;;;20.50;25.20;;;;;;6263963;28;20037;-84
2022/03/10 12:23:15;;;;;;;8.45;2.45;;;20.20;25.80;;;;;;6257939;28;20107;-84
2022/03/10 12:26:25;;;;;;;5.28;3.03;;;19.80;25.70;;;;;;6250399;28;20049;-83
2022/03/10 12:29:28;;;;;;;4.65;2.88;;;19.90;26.30;;;;;;6230919;28;20049;-83
2022/03/10 12:32:31;;;;;;;5.57;2.20;;;20.20;26.00;;;;;;6251722;28;20183;-84
2022/03/10 12:35:34;;;;;;;4.57;1.33;;;20.30;25.80;;;;;;6257345;28;20061;-84
2022/03/10 12:38:37;;;;;;;2.53;1.10;;;20.40;24.30;;;;;;6257374;28;20061;-83
2022/03/10 12:41:42;;;;;;;4.03;1.52;;;20.60;23.30;;;;;;6252328;28;20119;-85
2022/03/10 12:44:45;;;;;;;3.40;1.25;;;20.80;23.40;;;;;;6254088;28;20053;-85
2022/03/10 12:47:54;;;;;;;6.53;1.40;;;21.10;23.50;;;;;;6254510;28;20045;-84
2022/03/10 12:50:56;;;;;;;2.70;1.40;;;21.10;23.10;;;;;;6255062;28;20045;-84
2022/03/10 12:53:59;;;;;;;1.20;0.82;;;21.00;22.80;;;;;;6253668;28;20045;-85
2022/03/10 13:00:38;;;;;;;1.83;1.00;;;21.30;22.80;;;;;;6220198;28;20041;-86
2022/03/10 13:03:47;;;;;;;2.58;2.00;;;21.40;22.70;;;;;;6232002;28;20527;-85
2022/03/10 13:07:08;;;;;;;2.42;1.25;;;21.50;22.70;;;;;;6232858;28;20479;-87
2022/03/10 13:10:12;;;;;;;2.50;1.60;;;21.30;22.70;;;;;;6230232;28;20062;-85
2022/03/10 13:13:30;;;;;;;1.92;0.95;;;21.10;22.50;;;;;;6229890;28;20156;-87
2022/03/10 13:16:35;;;;;;;4.50;1.67;;;21.50;22.70;;;;;;6231106;28;20062;-86
2022/03/10 13:19:41;;;;;;;2.13;1.10;;;21.70;22.40;;;;;;6226893;28;20116;-86
2022/03/10 13:22:47;;;;;;;3.30;1.40;;;21.70;21.80;;;;;;6229279;28;20073;-86
2022/03/10 13:25:51;;;;;;;6.22;2.55;;;21.80;22.20;;;;;;6237880;28;20052;-86
2022/03/10 13:28:55;;;;;;;6.38;3.30;;;21.90;23.80;;;;;;6253776;28;20061;-86
2022/03/10 13:31:57;;;;;;;5.75;2.35;;;22.10;24.20;;;;;;6242593;28;20184;-85
2022/03/10 13:35:03;;;;;;;3.13;1.58;;;22.20;24.00;;;;;;6231300;28;20046;-85
2022/03/10 13:38:06;;;;;;;4.97;3.08;;;22.00;23.70;;;;;;6229523;28;20053;-86
2022/03/10 13:41:07;;;;;;;3.95;2.25;;;21.60;24.20;;;;;;6231531;28;20048;-86
2022/03/10 13:44:16;;;;;;;12.20;3.55;;;21.40;24.10;;;;;;6256365;28;20114;-86
2022/03/10 13:47:19;;;;;;;3.88;2.30;;;21.20;24.30;;;;;;6257686;28;20132;-86
2022/03/10 13:50:23;;;;;;;8.43;2.88;;;21.00;24.20;;;;;;6258608;28;20049;-84
2022/03/10 13:53:28;;;;;;;5.10;2.40;;;21.00;24.60;;;;;;6260265;28;20116;-86
2022/03/10 13:56:35;;;;;;;4.05;2.15;;;21.20;24.30;;;;;;6255796;28;20047;-86
2022/03/10 13:59:39;;;;;;;4.88;2.60;;;21.00;24.00;;;;;;6265255;28;20045;-86
2022/03/10 14:02:50;;;;;;;4.88;2.33;;;20.70;24.70;;;;;;6258561;28;20577;-84
2022/03/10 14:06:00;;;;;;;5.90;2.60;;;20.50;24.70;;;;;;6269088;28;20053;-84
2022/03/10 14:09:02;;;;;;;4.60;2.22;;;20.50;24.90;;;;;;6256007;28;20128;-85
2022/03/10 14:12:14;;;;;;;3.53;2.33;;;20.50;24.60;;;;;;6264979;28;20061;-84
2022/03/10 14:15:27;;;;;;;4.50;2.35;;;20.20;24.50;;;;;;6269205;28;20084;-84
2022/03/10 14:18:29;;;;;;;9.45;1.90;;;20.00;24.80;;;;;;6271974;28;20055;-83
2022/03/10 14:21:31;;;;;;;7.38;2.13;;;19.80;25.00;;;;;;6278944;22;20176;-81
2022/03/10 14:24:35;;;;;;;5.20;2.10;;;19.60;24.90;;;;;;6253544;28;20394;-82
2022/03/10 14:27:44;;;;;;;3.15;1.92;;;19.40;25.20;;;;;;6273796;28;20045;-81
2022/03/10 14:30:51;;;;;;;2.58;1.50;;;19.40;25.10;;;;;;6274997;28;20053;-81
2022/03/10 14:33:54;;;;;;;4.18;2.20;;;19.30;25.30;;;;;;6276720;28;20045;-81
2022/03/10 14:36:55;;;;;;;5.43;2.72;;;19.40;25.20;;;;;;6278792;28;20053;-81
2022/03/10 14:39:57;;;;;;;5.38;3.13;;;19.50;24.90;;;;;;6279539;28;20120;-83
2022/03/10 14:43:01;;;;;;;3.35;1.88;;;19.40;24.70;;;;;;6277939;28;20051;-83
2022/03/10 14:46:05;;;;;;;6.38;2.05;;;19.30;25.00;;;;;;6244231;28;20068;-81
2022/03/10 14:49:07;;;;;;;3.25;2.03;;;19.30;24.90;;;;;;6253559;28;20045;-81
2022/03/10 14:52:10;;;;;;;4.47;1.48;;;19.40;25.00;;;;;;6255375;28;20049;-80
2022/03/10 14:55:11;;;;;;;2.20;1.48;;;19.40;24.40;;;;;;6260827;28;20068;-80
2022/03/10 14:58:13;;;;;;;5.00;1.60;;;19.30;24.80;;;;;;6278739;28;20487;-81
2022/03/10 15:01:17;;;;;;;4.68;1.52;;;19.30;24.20;;;;;;6279405;28;20045;-80
2022/03/10 15:04:21;;;;;;;3.20;1.55;;;19.20;25.00;;;;;;6288379;28;20056;-81
2022/03/10 15:07:22;;;;;;;4.20;1.85;;;19.20;24.50;;;;;;6278467;28;20064;-80
2022/03/10 15:10:57;;;;;;;3.65;1.83;;;19.20;24.30;;;;;;6279302;28;20096;-82
2022/03/10 15:14:00;;;;;;;3.38;1.45;;;19.00;24.40;;;;;;6274676;28;20142;-80
2022/03/10 15:17:03;;;;;;;3.10;1.73;;;18.80;24.30;;;;;;6280160;28;20072;-82
2022/03/10 15:20:06;;;;;;;2.75;1.60;;;18.70;24.50;;;;;;6280680;28;20052;-83
2022/03/10 15:23:08;;;;;;;5.32;2.38;;;18.60;24.80;;;;;;6279650;28;20406;-81
2022/03/10 15:26:11;;;;;;;4.53;2.40;;;18.70;24.50;;;;;;6253821;28;20436;-81
2022/03/10 15:29:13;;;;;;;4.60;2.15;;;18.60;24.40;;;;;;6278607;28;20057;-81
2022/03/10 15:32:16;;;;;;;3.47;1.98;;;18.50;24.20;;;;;;6277176;28;20060;-82
2022/03/10 15:35:19;;;;;;;4.35;1.90;;;18.30;24.40;;;;;;6276016;28;20056;-81
2022/03/10 15:38:21;;;;;;;4.45;1.85;;;18.10;24.40;;;;;;6276535;28;20060;-80
2022/03/10 15:41:23;;;;;;;3.05;1.90;;;17.80;24.70;;;;;;6276012;28;20502;-82
2022/03/10 15:44:25;;;;;;;5.05;2.20;;;17.70;25.00;;;;;;6270786;28;20406;-81
2022/03/10 15:47:28;;;;;;;3.55;1.70;;;17.50;25.00;;;;;;6245693;28;20071;-80
2022/03/10 15:50:31;;;;;;;3.67;2.10;;;17.40;25.20;;;;;;6252728;28;20534;-80
2022/03/10 15:53:34;;;;;;;3.38;1.85;;;17.20;25.00;;;;;;6251967;28;20096;-81
2022/03/10 15:56:35;;;;;;;4.60;1.73;;;17.00;25.80;;;;;;6273788;28;20079;-81
2022/03/10 15:59:38;;;;;;;3.33;2.10;;;17.00;25.50;;;;;;6281002;28;20648;-81
2022/03/10 16:02:41;;;;;;;5.47;1.88;;;16.80;25.30;;;;;;6279333;28;20056;-80
2022/03/10 16:05:43;;;;;;;7.82;3.53;;;16.80;25.50;;;;;;6280463;28;20136;-80
2022/03/10 16:08:45;;;;;;;6.75;2.17;;;16.70;25.70;;;;;;6278234;28;20056;-82
2022/03/10 16:11:47;;;;;;;4.70;2.10;;;16.60;25.50;;;;;;6278103;28;20083;-81
2022/03/10 16:14:49;;;;;;;5.10;2.17;;;16.50;25.40;;;;;;6277027;28;20134;-81
2022/03/10 16:17:52;;;;;;;9.93;3.05;;;16.40;25.40;;;;;;6278976;28;20407;-83
2022/03/10 16:20:54;;;;;;;6.43;3.17;;;16.40;25.50;;;;;;6276426;28;20709;-80
2022/03/10 16:23:56;;;;;;;3.17;2.33;;;16.30;25.50;;;;;;6255532;28;20050;-79
2022/03/10 16:26:59;;;;;;;4.15;2.13;;;16.30;25.40;;;;;;6274065;28;20045;-80